map of GMMB home
GMMB - Airport
Location
City:  Ben Slimane, Morocco
ICAO:GMMB

Details
Type:Airport (Aerodrome, Airfield)
Latitude:3339'20"N (33.655422)
Longitude:713'17"W (-7.221449)
Datum:WGS 1984
Elevation:627 ft (191 m)
Variation:1.59W (WMM2015 magnetic declination)
0.11 annual change
Runways:1
Longest:10085 × 150 ft (3074 × 45.5 m), paved

Time
Time Zone:UTC+0 (DST+1)
Local Time:

Weather
METAR:GMMB 150400Z AUTO 09007KT //// R32/P2000N ////// 09/08 Q1028 NOSIG

Related Locations
Nearby:
Farthest:KAT: 12329 mi / 19842 km
Kaitaia, NTL, NZ

Find:

   beyond  
but within

Other Information
Maps:
NOTAMs:
Links:
Sources:

  
  • flag of Morocco
  

Sectional Chart

Flight Planning
at skyvector.com

Satellite Image

Google Maps Satellite view

 

Copyright © 2004-2018 Karl L. Swartz. All rights reserved.
The Great Circle Mapper name and logo are trademarks of the Great Circle Mapper.
All other trademarks mentioned herein belong to their respective owners.
Please see credits for attibutions and further copyright information.

  Follow gcmap on Facebook Follow gcmap on Twitter Follow gcmap on Google+ GCmap on LinkedIn

hCard Microformat

Geo Microformat